Adventure of The Seas — C6SA3 — position and weather

sailwx.info

Track history (hours):
 
Tides and Currents Weather Stations Pressure Air Temp Water Temp Dewpoint Dewpoint Depression Visibility Wind Speed Wind Dir Waves Ship Positions

Adventure of The Seas

Operator: Royal Caribbean Cruises Ltd

Last reported at 2014-Jul-24 14:33 UTC. Time now 2014-Jul-24 14:42 UTC.
Position N 39°58' E 002°06'.

Type: Passenger vessel. MMSI: 311263000.

Date/timePositionNaut miles runAvg speedWind from/ knotsBaromVisibWave heightAir tempDewpointWater temp
2014-Jul-24 14:33N 39°58' E 002°06'2121.0
2014-Jul-24 13:33N 39°44' E 001°45'2221.9
2014-Jul-24 12:33N 39°29' E 001°24'2221.7
2014-Jul-24 11:33N 39°15' E 001°03'4720.8
2014-Jul-24 09:17N 38°38' E 000°25'1520.4
2014-Jul-24 08:33N 38°26' E 000°14'2520.6
2014-Jul-24 07:21N 38°05' W 000°03'1620.5
2014-Jul-24 06:33N 37°51' W 000°14'1919.1
2014-Jul-24 05:33N 37°35' W 000°27'1919.4
2014-Jul-24 04:33N 37°21' W 000°44'2019.8
2014-Jul-24 03:33N 37°08' W 001°02'21719.4
2014-Jul-23 16:22N 36°05' W 005°21'78 6.6
2014-Jul-23 04:33N 36°04' W 006°57'1818.5
2014-Jul-23 03:33N 36°08' W 007°19'1918.9
2014-Jul-23 02:33N 36°13' W 007°42'1818.2
2014-Jul-23 01:33N 36°18' W 008°04'1818.2
2014-Jul-23 00:33N 36°23' W 008°26'1818.0
2014-Jul-22 23:33N 36°27' W 008°48'1817.9
2014-Jul-22 22:33N 36°31' W 009°09'1717.2
2014-Jul-22 21:33N 36°41' W 009°27'1717.4
2014-Jul-22 20:33N 36°57' W 009°35'1818.5
2014-Jul-22 19:33N 37°15' W 009°39'1919.4
2014-Jul-22 18:33N 37°34' W 009°45'1919.3
2014-Jul-22 17:33N 37°53' W 009°51'1918.7
2014-Jul-22 16:33N 38°11' W 009°56'80617.8
2014-Jul-20 19:20N 50°16' W 001°44'1620.1
2014-Jul-20 18:33N 50°23' W 001°22'2322.8
2014-Jul-20 17:33N 50°40' W 000°58'1110.6
2014-Jul-20 16:33N 50°46' W 001°13'1010.1
2014-Jul-20 15:33N 50°53' W 001°24'1 1.2
2014-Jul-20 14:32N 50°54' W 001°25'0 0.0
2014-Jul-20 13:32N 50°54' W 001°25'0 0.0
2014-Jul-20 12:30N 50°54' W 001°25'0 0.0
2014-Jul-20 11:24N 50°54' W 001°25'0 0.0
2014-Jul-20 10:27N 50°54' W 001°25'0 0.0
2014-Jul-20 09:33N 50°54' W 001°25'0 0.0
2014-Jul-20 08:33N 50°54' W 001°25'0 0.0
2014-Jul-20 07:33N 50°54' W 001°25'0 0.0
2014-Jul-20 06:30N 50°54' W 001°25'0 0.0
2014-Jul-20 05:30N 50°54' W 001°25'0 0.0
2014-Jul-20 04:32N 50°54' W 001°25'1 1.2
2014-Jul-20 03:33N 50°53' W 001°24'10 9.6
2014-Jul-20 02:33N 50°46' W 001°14'1212.3
2014-Jul-20 01:33N 50°38' W 000°59'4016.1
2014-Jul-19 23:05N 50°06' W 001°37'  
2014-Jul-17 18:33N 38°51' W 009°50'1414.0
2014-Jul-17 17:33N 38°37' W 009°46'1515.4
2014-Jul-17 16:33N 38°35' W 009°26'1311.7
2014-Jul-17 15:26N 38°42' W 009°11'1 0.1
2014-Jul-17 07:33N 38°42' W 009°10'0 0.0
2014-Jul-17 06:30N 38°42' W 009°10'0 0.2
2014-Jul-17 05:33N 38°42' W 009°10'10 8.9
2014-Jul-17 04:25N 38°37' W 009°22'1614.6
2014-Jul-17 03:17N 38°21' W 009°24'1114.5
2014-Jul-17 02:33N 38°10' W 009°23'1414.5
2014-Jul-17 01:33N 37°56' W 009°23'1514.8
2014-Jul-17 00:33N 37°41' W 009°22'1414.2
2014-Jul-16 23:33N 37°27' W 009°22'1514.8
2014-Jul-16 22:33N 37°12' W 009°20'1514.6
2014-Jul-16 21:33N 36°58' W 009°19'1414.4
2014-Jul-16 20:33N 36°45' W 009°10'1514.6
2014-Jul-16 19:33N 36°40' W 008°53'1514.6
2014-Jul-16 18:33N 36°36' W 008°36'3214.4
2014-Jul-16 16:22N 36°25' W 007°58'352 9.6
2014-Jul-15 03:34N 37°32' W 000°46'1111.4
2014-Jul-15 02:33N 37°37' W 000°32'1312.4
2014-Jul-15 01:31N 37°47' W 000°23'1312.4
2014-Jul-15 00:30N 37°58' W 000°14'1712.7
2014-Jul-14 23:11N 38°12' W 000°03'7010.3
2014-Jul-14 16:25N 39°22' W 000°12'8 9.0
2014-Jul-14 15:33N 39°28' W 000°18'  
Track history (hours):
 
Tides and Currents Weather Stations Pressure Air Temp Water Temp Dewpoint Dewpoint Depression Visibility Wind Speed Wind Dir Waves Ship Positions

Adventure of The Seas

Operator: Royal Caribbean Cruises Ltd

Last reported at 2014-Jul-24 14:33 UTC. Time now 2014-Jul-24 14:42 UTC.
Position N 39°58' E 002°06'.

Type: Passenger vessel. MMSI: 311263000.

Date/timePositionNaut miles runAvg speedWind from/ knotsBaromVisibWave heightAir tempDewpointWater temp
2014-Jul-24 14:33N 39°58' E 002°06'2121.0
2014-Jul-24 13:33N 39°44' E 001°45'2221.9
2014-Jul-24 12:33N 39°29' E 001°24'2221.7
2014-Jul-24 11:33N 39°15' E 001°03'4720.8
2014-Jul-24 09:17N 38°38' E 000°25'1520.4
2014-Jul-24 08:33N 38°26' E 000°14'2520.6
2014-Jul-24 07:21N 38°05' W 000°03'1620.5
2014-Jul-24 06:33N 37°51' W 000°14'1919.1
2014-Jul-24 05:33N 37°35' W 000°27'1919.4
2014-Jul-24 04:33N 37°21' W 000°44'2019.8
2014-Jul-24 03:33N 37°08' W 001°02'21719.4
2014-Jul-23 16:22N 36°05' W 005°21'78 6.6
2014-Jul-23 04:33N 36°04' W 006°57'1818.5
2014-Jul-23 03:33N 36°08' W 007°19'1918.9
2014-Jul-23 02:33N 36°13' W 007°42'1818.2
2014-Jul-23 01:33N 36°18' W 008°04'1818.2
2014-Jul-23 00:33N 36°23' W 008°26'1818.0
2014-Jul-22 23:33N 36°27' W 008°48'1817.9
2014-Jul-22 22:33N 36°31' W 009°09'1717.2
2014-Jul-22 21:33N 36°41' W 009°27'1717.4
2014-Jul-22 20:33N 36°57' W 009°35'1818.5
2014-Jul-22 19:33N 37°15' W 009°39'1919.4
2014-Jul-22 18:33N 37°34' W 009°45'1919.3
2014-Jul-22 17:33N 37°53' W 009°51'1918.7
2014-Jul-22 16:33N 38°11' W 009°56'80617.8
2014-Jul-20 19:20N 50°16' W 001°44'1620.1
2014-Jul-20 18:33N 50°23' W 001°22'2322.8
2014-Jul-20 17:33N 50°40' W 000°58'1110.6
2014-Jul-20 16:33N 50°46' W 001°13'1010.1
2014-Jul-20 15:33N 50°53' W 001°24'1 1.2
2014-Jul-20 14:32N 50°54' W 001°25'0 0.0
2014-Jul-20 13:32N 50°54' W 001°25'0 0.0
2014-Jul-20 12:30N 50°54' W 001°25'0 0.0
2014-Jul-20 11:24N 50°54' W 001°25'0 0.0
2014-Jul-20 10:27N 50°54' W 001°25'0 0.0
2014-Jul-20 09:33N 50°54' W 001°25'0 0.0
2014-Jul-20 08:33N 50°54' W 001°25'0 0.0
2014-Jul-20 07:33N 50°54' W 001°25'0 0.0
2014-Jul-20 06:30N 50°54' W 001°25'0 0.0
2014-Jul-20 05:30N 50°54' W 001°25'0 0.0
2014-Jul-20 04:32N 50°54' W 001°25'1 1.2
2014-Jul-20 03:33N 50°53' W 001°24'10 9.6
2014-Jul-20 02:33N 50°46' W 001°14'1212.3
2014-Jul-20 01:33N 50°38' W 000°59'4016.1
2014-Jul-19 23:05N 50°06' W 001°37'  
2014-Jul-17 18:33N 38°51' W 009°50'1414.0
2014-Jul-17 17:33N 38°37' W 009°46'1515.4
2014-Jul-17 16:33N 38°35' W 009°26'1311.7
2014-Jul-17 15:26N 38°42' W 009°11'1 0.1
2014-Jul-17 07:33N 38°42' W 009°10'0 0.0
2014-Jul-17 06:30N 38°42' W 009°10'0 0.2
2014-Jul-17 05:33N 38°42' W 009°10'10 8.9
2014-Jul-17 04:25N 38°37' W 009°22'1614.6
2014-Jul-17 03:17N 38°21' W 009°24'1114.5
2014-Jul-17 02:33N 38°10' W 009°23'1414.5
2014-Jul-17 01:33N 37°56' W 009°23'1514.8
2014-Jul-17 00:33N 37°41' W 009°22'1414.2
2014-Jul-16 23:33N 37°27' W 009°22'1514.8
2014-Jul-16 22:33N 37°12' W 009°20'1514.6
2014-Jul-16 21:33N 36°58' W 009°19'1414.4
2014-Jul-16 20:33N 36°45' W 009°10'1514.6
2014-Jul-16 19:33N 36°40' W 008°53'1514.6
2014-Jul-16 18:33N 36°36' W 008°36'3214.4
2014-Jul-16 16:22N 36°25' W 007°58'352 9.6
2014-Jul-15 03:34N 37°32' W 000°46'1111.4
2014-Jul-15 02:33N 37°37' W 000°32'1312.4
2014-Jul-15 01:31N 37°47' W 000°23'1312.4
2014-Jul-15 00:30N 37°58' W 000°14'1712.7
2014-Jul-14 23:11N 38°12' W 000°03'7010.3
2014-Jul-14 16:25N 39°22' W 000°12'8 9.0
2014-Jul-14 15:33N 39°28' W 000°18'  

Dump ship's entire track history